Time;durP1;ratioP1;P1;durP2;ratioP2;P2;SDS_P1;SDS_P2;PMS_P1;PMS_P2;Temp;Humidity;BMP_temperature;BMP_pressure;BME280_temperature;BME280_humidity;BME280_pressure;Samples;Min_cycle;Max_cycle;Signal;HPM_P1;HPM_P2
2024/02/25 00:02:10;;;;;;;21.80;15.48;;;;;;;;;;5030258;28;20318;-47
2024/02/25 00:04:37;;;;;;;50.88;17.20;;;;;;;;;;5029635;28;20022;-48
2024/02/25 00:07:03;;;;;;;58.95;17.88;;;;;;;;;;5029931;28;20045;-54
2024/02/25 00:09:30;;;;;;;36.30;16.92;;;;;;;;;;5030094;28;20207;-54
2024/02/25 00:11:56;;;;;;;34.70;16.42;;;;;;;;;;5030049;28;20076;-51
2024/02/25 00:14:28;;;;;;;31.05;16.40;;;;;;;;;;5030072;28;20077;-48
2024/02/25 00:16:55;;;;;;;34.00;17.15;;;;;;;;;;5029211;28;20021;-50
2024/02/25 00:19:21;;;;;;;138.93;22.38;;;;;;;;;;5029910;28;20032;-51
2024/02/25 00:21:48;;;;;;;53.60;16.85;;;;;;;;;;5029700;28;20025;-49
2024/02/25 00:24:17;;;;;;;39.88;15.80;;;;;;;;;;5029746;28;20020;-50
2024/02/25 00:26:43;;;;;;;29.65;16.70;;;;;;;;;;5027832;28;20010;-52
2024/02/25 00:29:14;;;;;;;24.33;16.45;;;;;;;;;;5026210;28;20028;-49
2024/02/25 00:31:41;;;;;;;26.25;16.58;;;;;;;;;;5006980;28;20026;-47
2024/02/25 00:34:08;;;;;;;47.15;17.85;;;;;;;;;;5006981;28;20026;-46
2024/02/25 00:36:34;;;;;;;30.25;16.95;;;;;;;;;;5007166;28;20037;-45
2024/02/25 00:39:02;;;;;;;31.27;16.55;;;;;;;;;;5007022;28;20076;-44
2024/02/25 00:41:29;;;;;;;27.33;17.10;;;;;;;;;;5010129;28;20068;-48
2024/02/25 00:43:55;;;;;;;23.35;16.10;;;;;;;;;;5025854;28;20022;-54
2024/02/25 00:46:22;;;;;;;28.33;16.30;;;;;;;;;;5026878;28;20025;-49
2024/02/25 00:48:48;;;;;;;129.85;21.00;;;;;;;;;;5025595;28;20022;-47
2024/02/25 00:51:15;;;;;;;72.03;17.95;;;;;;;;;;5026118;28;20044;-49
2024/02/25 00:53:42;;;;;;;40.72;16.40;;;;;;;;;;5026283;28;20068;-47
2024/02/25 00:56:08;;;;;;;28.23;15.88;;;;;;;;;;5026983;28;20034;-50
2024/02/25 00:58:35;;;;;;;32.58;16.13;;;;;;;;;;5026074;28;20025;-44
2024/02/25 01:01:02;;;;;;;30.95;16.27;;;;;;;;;;5026454;28;20068;-45
2024/02/25 01:03:29;;;;;;;26.02;15.52;;;;;;;;;;5026075;28;20025;-46
2024/02/25 01:05:55;;;;;;;36.42;16.50;;;;;;;;;;5025826;28;20054;-56
2024/02/25 01:08:22;;;;;;;30.70;15.77;;;;;;;;;;5025964;28;20020;-55
2024/02/25 01:10:48;;;;;;;48.63;16.77;;;;;;;;;;5026347;28;20030;-49
2024/02/25 01:13:17;;;;;;;27.65;15.88;;;;;;;;;;5025724;28;20028;-42
2024/02/25 01:15:43;;;;;;;47.05;16.45;;;;;;;;;;5026112;28;20029;-49
2024/02/25 01:18:10;;;;;;;167.63;23.23;;;;;;;;;;5025061;28;20024;-44
2024/02/25 01:20:36;;;;;;;56.95;17.45;;;;;;;;;;5025831;28;20029;-48
2024/02/25 01:23:04;;;;;;;34.97;16.27;;;;;;;;;;5025862;28;20095;-47
2024/02/25 01:25:30;;;;;;;34.67;16.33;;;;;;;;;;5026044;28;20022;-48
2024/02/25 01:27:57;;;;;;;33.10;16.08;;;;;;;;;;5025625;28;20259;-42
2024/02/25 01:30:23;;;;;;;35.40;16.10;;;;;;;;;;5025819;28;20033;-48
2024/02/25 01:32:50;;;;;;;43.08;16.73;;;;;;;;;;5025595;28;20033;-46
2024/02/25 01:35:16;;;;;;;36.10;16.08;;;;;;;;;;5025462;28;20029;-49
2024/02/25 01:37:43;;;;;;;30.08;15.10;;;;;;;;;;5024846;28;20079;-52
2024/02/25 01:40:10;;;;;;;28.92;15.50;;;;;;;;;;5025595;28;20191;-45
2024/02/25 01:42:37;;;;;;;50.22;16.45;;;;;;;;;;5025378;28;20014;-50
2024/02/25 01:45:04;;;;;;;26.25;14.65;;;;;;;;;;5025284;28;20271;-55
2024/02/25 01:47:30;;;;;;;62.45;17.52;;;;;;;;;;5024771;28;20022;-45
2024/02/25 01:49:57;;;;;;;30.00;15.93;;;;;;;;;;5024537;28;20044;-48
2024/02/25 01:52:24;;;;;;;41.15;16.15;;;;;;;;;;5024937;28;20021;-51
2024/02/25 01:54:51;;;;;;;29.05;15.25;;;;;;;;;;5025126;28;20202;-46
2024/02/25 01:57:17;;;;;;;20.60;15.13;;;;;;;;;;5024975;28;20028;-50
2024/02/25 01:59:44;;;;;;;33.85;15.35;;;;;;;;;;5025003;28;20033;-45
2024/02/25 02:02:13;;;;;;;42.83;15.93;;;;;;;;;;5024881;28;20203;-44
2024/02/25 02:04:41;;;;;;;25.92;15.82;;;;;;;;;;5024788;28;20025;-47
2024/02/25 02:07:09;;;;;;;23.63;15.13;;;;;;;;;;5025036;28;20214;-47
2024/02/25 02:09:36;;;;;;;26.05;14.95;;;;;;;;;;5024843;28;20064;-51
2024/02/25 02:12:02;;;;;;;20.23;14.85;;;;;;;;;;5024822;28;20095;-53
2024/02/25 02:14:30;;;;;;;28.88;14.77;;;;;;;;;;5024589;28;20026;-51
2024/02/25 02:16:57;;;;;;;25.63;15.65;;;;;;;;;;5018901;28;20022;-57
2024/02/25 02:19:24;;;;;;;24.33;16.05;;;;;;;;;;5013838;28;20022;-54
2024/02/25 02:21:54;;;;;;;19.73;14.80;;;;;;;;;;5017959;28;20057;-61
2024/02/25 02:24:21;;;;;;;20.38;15.35;;;;;;;;;;5018980;28;20018;-50
2024/02/25 02:26:47;;;;;;;16.30;14.57;;;;;;;;;;5011263;28;20255;-54
2024/02/25 02:29:14;;;;;;;22.70;15.18;;;;;;;;;;5014441;28;20056;-48
2024/02/25 02:31:40;;;;;;;18.60;14.43;;;;;;;;;;5014995;28;20080;-52
2024/02/25 02:34:07;;;;;;;108.25;21.13;;;;;;;;;;5013323;28;20014;-50
2024/02/25 02:36:34;;;;;;;48.75;16.13;;;;;;;;;;5014946;28;20263;-55
2024/02/25 02:39:00;;;;;;;36.45;15.15;;;;;;;;;;5014740;28;20337;-44
2024/02/25 02:41:27;;;;;;;22.20;14.45;;;;;;;;;;5013610;28;20222;-58
2024/02/25 02:43:54;;;;;;;20.13;14.95;;;;;;;;;;5014289;28;20022;-48
2024/02/25 02:46:20;;;;;;;21.92;15.32;;;;;;;;;;5015129;28;20029;-55
2024/02/25 02:48:47;;;;;;;19.45;15.45;;;;;;;;;;5012832;28;20056;-50
2024/02/25 02:51:13;;;;;;;20.00;14.48;;;;;;;;;;5014355;28;20033;-46
2024/02/25 02:53:40;;;;;;;21.08;14.07;;;;;;;;;;5014646;28;20052;-48
2024/02/25 02:56:06;;;;;;;20.40;13.98;;;;;;;;;;5013362;28;20053;-47
2024/02/25 02:58:33;;;;;;;28.73;13.50;;;;;;;;;;5014392;28;20021;-51
2024/02/25 03:00:59;;;;;;;18.17;14.35;;;;;;;;;;5014913;28;20022;-47
2024/02/25 03:03:26;;;;;;;17.10;13.68;;;;;;;;;;5012950;28;20303;-50
2024/02/25 03:05:53;;;;;;;21.33;13.63;;;;;;;;;;5014061;28;20352;-57
2024/02/25 03:08:19;;;;;;;18.23;14.38;;;;;;;;;;5014502;28;20048;-47
2024/02/25 03:10:46;;;;;;;22.13;14.63;;;;;;;;;;5013148;28;20026;-58
2024/02/25 03:13:12;;;;;;;24.27;14.68;;;;;;;;;;5014522;28;20037;-48
2024/02/25 03:15:39;;;;;;;23.52;14.48;;;;;;;;;;5014405;28;20037;-57
2024/02/25 03:18:06;;;;;;;21.02;14.30;;;;;;;;;;5013079;28;20305;-53
2024/02/25 03:20:32;;;;;;;24.42;15.43;;;;;;;;;;5014531;28;20021;-46
2024/02/25 03:22:59;;;;;;;25.67;15.50;;;;;;;;;;5014122;28;20014;-50
2024/02/25 03:25:25;;;;;;;21.33;14.90;;;;;;;;;;5013006;28;20029;-47
2024/02/25 03:27:52;;;;;;;22.08;14.57;;;;;;;;;;5019178;28;20190;-45
2024/02/25 03:30:18;;;;;;;17.73;15.07;;;;;;;;;;5014823;28;20028;-47
2024/02/25 03:32:45;;;;;;;23.48;14.50;;;;;;;;;;5014709;28;20018;-53
2024/02/25 03:35:11;;;;;;;21.48;15.27;;;;;;;;;;5013400;28;20065;-57
2024/02/25 03:37:39;;;;;;;22.77;14.80;;;;;;;;;;4995802;28;20021;-56
2024/02/25 03:40:06;;;;;;;48.63;16.15;;;;;;;;;;5014795;28;20042;-49
2024/02/25 03:42:33;;;;;;;28.40;14.77;;;;;;;;;;5013270;28;20081;-53
2024/02/25 03:44:59;;;;;;;22.30;15.27;;;;;;;;;;5013257;28;20044;-45
2024/02/25 03:47:26;;;;;;;21.80;16.55;;;;;;;;;;5014191;28;20025;-45
2024/02/25 03:49:53;;;;;;;25.50;19.17;;;;;;;;;;5014579;28;20025;-50
2024/02/25 03:52:19;;;;;;;30.92;22.08;;;;;;;;;;5017833;28;20025;-52
2024/02/25 03:54:50;;;;;;;48.78;28.25;;;;;;;;;;5017717;28;20310;-54
2024/02/25 03:57:16;;;;;;;40.83;31.05;;;;;;;;;;5015650;28;20053;-52
2024/02/25 03:59:43;;;;;;;39.88;25.20;;;;;;;;;;5019184;28;20097;-52
2024/02/25 04:02:09;;;;;;;33.45;25.40;;;;;;;;;;5016473;28;20019;-52
2024/02/25 04:04:36;;;;;;;41.45;26.63;;;;;;;;;;5026044;28;20026;-51
2024/02/25 04:07:02;;;;;;;44.95;29.92;;;;;;;;;;5017144;28;20093;-47
2024/02/25 04:09:29;;;;;;;40.22;29.85;;;;;;;;;;5016301;28;20065;-47
2024/02/25 04:11:56;;;;;;;38.03;25.42;;;;;;;;;;5016945;28;20097;-51
2024/02/25 04:14:22;;;;;;;31.13;22.45;;;;;;;;;;5017832;28;20022;-49
2024/02/25 04:16:49;;;;;;;26.13;19.90;;;;;;;;;;5016118;28;20352;-49
2024/02/25 04:19:15;;;;;;;27.40;20.67;;;;;;;;;;5015573;28;20065;-52
2024/02/25 04:21:42;;;;;;;24.52;18.17;;;;;;;;;;5015902;28;20018;-45
2024/02/25 04:24:08;;;;;;;21.80;17.77;;;;;;;;;;5017948;28;20322;-51
2024/02/25 04:26:35;;;;;;;22.83;16.70;;;;;;;;;;5016886;28;20329;-45
2024/02/25 04:29:02;;;;;;;22.20;16.83;;;;;;;;;;5015919;28;20394;-47
2024/02/25 04:31:28;;;;;;;22.17;16.83;;;;;;;;;;5021734;28;20026;-43
2024/02/25 04:33:55;;;;;;;18.83;16.20;;;;;;;;;;5019444;28;20029;-48
2024/02/25 04:36:21;;;;;;;23.75;16.30;;;;;;;;;;5017632;28;20068;-55
2024/02/25 04:38:48;;;;;;;17.85;15.65;;;;;;;;;;5015390;28;20097;-47
2024/02/25 04:41:15;;;;;;;18.23;15.70;;;;;;;;;;5017186;28;20030;-52
2024/02/25 04:43:41;;;;;;;20.80;15.48;;;;;;;;;;5017027;28;20019;-48
2024/02/25 04:46:08;;;;;;;19.95;14.80;;;;;;;;;;5015525;28;20033;-51
2024/02/25 04:48:38;;;;;;;23.77;15.65;;;;;;;;;;5016793;28;20048;-53
2024/02/25 04:51:04;;;;;;;20.30;16.02;;;;;;;;;;5017583;28;20357;-45
2024/02/25 04:53:31;;;;;;;20.25;15.65;;;;;;;;;;5015427;28;20030;-51
2024/02/25 04:56:00;;;;;;;20.90;15.55;;;;;;;;;;5016474;28;20064;-48
2024/02/25 04:58:26;;;;;;;17.95;15.88;;;;;;;;;;5017082;28;20040;-46
2024/02/25 05:00:53;;;;;;;19.40;15.65;;;;;;;;;;5015314;28;20018;-48
2024/02/25 05:03:19;;;;;;;19.48;15.30;;;;;;;;;;5021475;28;20298;-47
2024/02/25 05:05:46;;;;;;;19.23;16.05;;;;;;;;;;4997395;28;20054;-50
2024/02/25 05:08:13;;;;;;;16.83;15.13;;;;;;;;;;5016272;28;20014;-47
2024/02/25 05:10:39;;;;;;;22.02;15.48;;;;;;;;;;5016534;28;20034;-49
2024/02/25 05:13:09;;;;;;;16.38;14.68;;;;;;;;;;5013988;28;20326;-48
2024/02/25 05:15:37;;;;;;;16.98;14.98;;;;;;;;;;5016196;28;20041;-52
2024/02/25 05:18:03;;;;;;;18.45;15.10;;;;;;;;;;5016613;28;20022;-44
2024/02/25 05:20:30;;;;;;;17.15;15.40;;;;;;;;;;5014913;28;20085;-47
2024/02/25 05:22:56;;;;;;;17.73;15.23;;;;;;;;;;5021394;28;20024;-52
2024/02/25 05:25:23;;;;;;;19.45;15.80;;;;;;;;;;5008250;28;20025;-47
2024/02/25 05:27:50;;;;;;;18.00;14.75;;;;;;;;;;5025665;28;20263;-44
2024/02/25 05:30:16;;;;;;;18.58;15.00;;;;;;;;;;5025727;28;20026;-48
2024/02/25 05:32:44;;;;;;;20.25;15.65;;;;;;;;;;5025610;28;20021;-43
2024/02/25 05:35:10;;;;;;;16.42;14.85;;;;;;;;;;5023765;28;20035;-45
2024/02/25 05:37:37;;;;;;;17.92;15.10;;;;;;;;;;5011038;28;20021;-46
2024/02/25 05:40:04;;;;;;;18.02;15.07;;;;;;;;;;5025797;28;20048;-47
2024/02/25 05:42:31;;;;;;;17.00;15.23;;;;;;;;;;5025340;28;20025;-42
2024/02/25 05:44:58;;;;;;;20.80;15.98;;;;;;;;;;5025524;28;20030;-43
2024/02/25 05:47:24;;;;;;;17.90;15.13;;;;;;;;;;5025274;28;20025;-43
2024/02/25 05:49:51;;;;;;;17.58;15.85;;;;;;;;;;5025447;28;20022;-43
2024/02/25 05:52:17;;;;;;;19.17;15.45;;;;;;;;;;5025206;28;20049;-49
2024/02/25 05:54:44;;;;;;;18.58;15.80;;;;;;;;;;5024818;28;20079;-42
2024/02/25 05:57:10;;;;;;;17.75;15.85;;;;;;;;;;5025110;28;20349;-47
2024/02/25 05:59:37;;;;;;;17.85;16.00;;;;;;;;;;5025080;28;20085;-44
2024/02/25 06:02:04;;;;;;;19.27;15.82;;;;;;;;;;5024981;28;20022;-54
2024/02/25 06:04:30;;;;;;;17.63;15.93;;;;;;;;;;5024611;28;20033;-46
2024/02/25 06:06:57;;;;;;;17.17;15.38;;;;;;;;;;5024714;28;20284;-51
2024/02/25 06:09:24;;;;;;;17.13;15.52;;;;;;;;;;5025271;28;20018;-50
2024/02/25 06:11:50;;;;;;;18.08;15.82;;;;;;;;;;5024967;28;20025;-43
2024/02/25 06:14:17;;;;;;;17.38;15.55;;;;;;;;;;5024192;28;20025;-52
2024/02/25 06:16:43;;;;;;;28.85;16.52;;;;;;;;;;5024761;28;20033;-54
2024/02/25 06:19:10;;;;;;;20.52;15.57;;;;;;;;;;5024702;28;20033;-49
2024/02/25 06:21:36;;;;;;;20.55;15.52;;;;;;;;;;5024575;28;20033;-57
2024/02/25 06:24:03;;;;;;;17.30;15.40;;;;;;;;;;5024657;28;20234;-49
2024/02/25 06:26:30;;;;;;;22.02;15.80;;;;;;;;;;5025119;28;20021;-48
2024/02/25 06:28:58;;;;;;;18.80;15.35;;;;;;;;;;5024733;28;20064;-50
2024/02/25 06:31:26;;;;;;;19.27;15.55;;;;;;;;;;5024996;28;20049;-49
2024/02/25 06:33:53;;;;;;;18.48;15.77;;;;;;;;;;5024725;28;20032;-54
2024/02/25 06:36:20;;;;;;;17.02;15.15;;;;;;;;;;5024665;28;20191;-46
2024/02/25 06:38:47;;;;;;;18.83;15.77;;;;;;;;;;5024432;28;20025;-49
2024/02/25 06:41:20;;;;;;;18.45;15.63;;;;;;;;;;5024855;28;20183;-52
2024/02/25 06:43:47;;;;;;;17.75;15.93;;;;;;;;;;5024322;28;20026;-50
2024/02/25 06:46:14;;;;;;;16.63;15.00;;;;;;;;;;5024806;28;20085;-49
2024/02/25 06:48:41;;;;;;;17.13;15.35;;;;;;;;;;5024279;28;20028;-54
2024/02/25 06:51:07;;;;;;;17.65;15.85;;;;;;;;;;5024827;28;20030;-50
2024/02/25 06:53:35;;;;;;;26.00;16.63;;;;;;;;;;5024221;28;20032;-49
2024/02/25 06:56:01;;;;;;;16.92;15.07;;;;;;;;;;5024647;28;20026;-53
2024/02/25 06:58:28;;;;;;;17.67;15.30;;;;;;;;;;5024150;28;20030;-54
2024/02/25 07:00:54;;;;;;;20.00;14.85;;;;;;;;;;5024510;28;20053;-48
2024/02/25 07:03:21;;;;;;;22.45;15.20;;;;;;;;;;5024168;28;20028;-53
2024/02/25 07:05:47;;;;;;;16.52;14.95;;;;;;;;;;5023905;28;20050;-53
2024/02/25 07:08:14;;;;;;;16.45;14.77;;;;;;;;;;5023726;28;20025;-49
2024/02/25 07:10:41;;;;;;;17.45;15.10;;;;;;;;;;5024342;28;20103;-55
2024/02/25 07:13:07;;;;;;;16.92;15.05;;;;;;;;;;5024111;28;20041;-53
2024/02/25 07:15:34;;;;;;;16.80;15.30;;;;;;;;;;5024102;28;20178;-48
2024/02/25 07:18:00;;;;;;;20.27;15.25;;;;;;;;;;5024112;28;20026;-52
2024/02/25 07:20:27;;;;;;;20.13;14.98;;;;;;;;;;5024184;28;20033;-53
2024/02/25 07:22:53;;;;;;;16.75;14.93;;;;;;;;;;5023788;28;20081;-54
2024/02/25 07:25:20;;;;;;;16.88;15.10;;;;;;;;;;5024106;28;20026;-55
2024/02/25 07:27:46;;;;;;;17.92;15.45;;;;;;;;;;5023925;28;20022;-48
2024/02/25 07:30:13;;;;;;;16.70;15.00;;;;;;;;;;5024013;28;20032;-50
2024/02/25 07:32:40;;;;;;;16.77;14.95;;;;;;;;;;5023855;28;20060;-52
2024/02/25 07:35:07;;;;;;;16.63;15.02;;;;;;;;;;5023760;28;20080;-56
2024/02/25 07:37:34;;;;;;;17.55;14.73;;;;;;;;;;5027524;28;20021;-53
2024/02/25 07:40:00;;;;;;;16.17;14.55;;;;;;;;;;5027698;28;20025;-54
2024/02/25 07:42:27;;;;;;;16.80;14.60;;;;;;;;;;5027706;28;20344;-52
2024/02/25 07:44:54;;;;;;;15.98;14.30;;;;;;;;;;5027686;28;20306;-52
2024/02/25 07:47:20;;;;;;;16.83;15.07;;;;;;;;;;5027595;28;20018;-52
2024/02/25 07:49:47;;;;;;;17.25;14.95;;;;;;;;;;5027651;28;20202;-54
2024/02/25 07:52:13;;;;;;;18.10;15.07;;;;;;;;;;5027459;28;20025;-54
2024/02/25 07:54:40;;;;;;;16.23;14.60;;;;;;;;;;5027584;28;20097;-56
2024/02/25 07:57:06;;;;;;;19.25;15.32;;;;;;;;;;5027514;28;20025;-54
2024/02/25 07:59:33;;;;;;;17.83;15.32;;;;;;;;;;5027305;28;20021;-54
2024/02/25 08:01:59;;;;;;;16.50;14.80;;;;;;;;;;5027725;28;20026;-53
2024/02/25 08:04:26;;;;;;;16.40;14.25;;;;;;;;;;5027319;28;20025;-54
2024/02/25 08:06:53;;;;;;;17.27;15.48;;;;;;;;;;5027133;28;20050;-59
2024/02/25 08:09:19;;;;;;;17.08;15.38;;;;;;;;;;5027388;28;20088;-57
2024/02/25 08:11:46;;;;;;;15.63;14.13;;;;;;;;;;5027245;28;20361;-55
2024/02/25 08:14:12;;;;;;;17.98;15.02;;;;;;;;;;5027163;28;20310;-56
2024/02/25 08:16:39;;;;;;;17.42;15.50;;;;;;;;;;5027020;28;20348;-55
2024/02/25 08:19:05;;;;;;;17.73;14.70;;;;;;;;;;5027173;28;20030;-59
2024/02/25 08:21:32;;;;;;;18.50;14.93;;;;;;;;;;5027373;28;20060;-55
2024/02/25 08:23:58;;;;;;;16.98;15.25;;;;;;;;;;5026784;28;20014;-54
2024/02/25 08:26:25;;;;;;;17.20;15.48;;;;;;;;;;5027736;28;20025;-56
2024/02/25 08:28:52;;;;;;;19.85;15.63;;;;;;;;;;5026900;28;20060;-57
2024/02/25 08:31:18;;;;;;;16.27;14.63;;;;;;;;;;5027263;28;20033;-55
2024/02/25 08:33:45;;;;;;;17.63;15.15;;;;;;;;;;5027002;28;20085;-54
2024/02/25 08:36:12;;;;;;;19.27;15.50;;;;;;;;;;5027435;28;20088;-56
2024/02/25 08:38:40;;;;;;;16.65;14.75;;;;;;;;;;5026537;28;20026;-54
2024/02/25 08:41:07;;;;;;;17.50;14.68;;;;;;;;;;5027072;28;20040;-56
2024/02/25 08:43:33;;;;;;;17.60;15.10;;;;;;;;;;5026540;28;20096;-55
2024/02/25 08:46:01;;;;;;;17.08;14.35;;;;;;;;;;5026713;28;20045;-53
2024/02/25 08:48:28;;;;;;;16.65;14.93;;;;;;;;;;5025239;28;20025;-56
2024/02/25 08:50:55;;;;;;;16.42;14.73;;;;;;;;;;5026860;28;20033;-53
2024/02/25 08:53:21;;;;;;;16.98;14.55;;;;;;;;;;5026289;28;20029;-51
2024/02/25 08:55:48;;;;;;;15.60;14.05;;;;;;;;;;5026637;28;20042;-53
2024/02/25 08:58:14;;;;;;;17.60;15.48;;;;;;;;;;5026317;28;20018;-52
2024/02/25 09:00:44;;;;;;;16.10;14.50;;;;;;;;;;5026431;28;20053;-52
2024/02/25 09:03:12;;;;;;;15.30;13.52;;;;;;;;;;5026318;28;20014;-50
2024/02/25 09:05:38;;;;;;;16.23;14.43;;;;;;;;;;5025985;28;20054;-50
2024/02/25 09:08:05;;;;;;;16.58;14.98;;;;;;;;;;5026170;28;20321;-54
2024/02/25 09:10:34;;;;;;;16.88;14.85;;;;;;;;;;5026431;28;20030;-54
2024/02/25 09:13:03;;;;;;;16.23;14.52;;;;;;;;;;5026040;28;20068;-55
2024/02/25 09:15:30;;;;;;;16.15;14.45;;;;;;;;;;5026060;28;20234;-47
2024/02/25 09:17:58;;;;;;;16.88;14.20;;;;;;;;;;5026104;28;20077;-49
2024/02/25 09:20:27;;;;;;;19.98;14.82;;;;;;;;;;5025977;28;20064;-51
2024/02/25 09:22:54;;;;;;;15.43;13.85;;;;;;;;;;5025737;28;20057;-52
2024/02/25 09:25:20;;;;;;;16.98;15.00;;;;;;;;;;5025974;28;20021;-51
2024/02/25 09:27:47;;;;;;;18.33;15.35;;;;;;;;;;5025731;28;20018;-51
2024/02/25 09:30:14;;;;;;;19.67;15.93;;;;;;;;;;5026107;28;20065;-58
2024/02/25 09:32:40;;;;;;;18.75;15.00;;;;;;;;;;5025675;28;20022;-58
2024/02/25 09:35:07;;;;;;;17.75;14.20;;;;;;;;;;5025825;28;20037;-56
2024/02/25 09:37:34;;;;;;;16.95;15.18;;;;;;;;;;5025423;28;20080;-53
2024/02/25 09:40:00;;;;;;;16.25;14.75;;;;;;;;;;5025626;28;20032;-56
2024/02/25 09:42:29;;;;;;;17.25;15.48;;;;;;;;;;5025366;28;20195;-56
2024/02/25 09:44:56;;;;;;;16.67;14.88;;;;;;;;;;5025377;28;20034;-55
2024/02/25 09:47:23;;;;;;;18.17;14.57;;;;;;;;;;5025384;28;20328;-54
2024/02/25 09:49:49;;;;;;;18.48;15.35;;;;;;;;;;5025465;28;20202;-55
2024/02/25 09:52:20;;;;;;;16.88;14.82;;;;;;;;;;5025128;28;20033;-53
2024/02/25 09:54:47;;;;;;;16.83;15.13;;;;;;;;;;5025135;28;20034;-54
2024/02/25 09:57:16;;;;;;;17.08;15.23;;;;;;;;;;5025148;28;20044;-53
2024/02/25 09:59:43;;;;;;;16.23;14.60;;;;;;;;;;5024741;28;20025;-54
2024/02/25 10:02:10;;;;;;;16.85;15.15;;;;;;;;;;5025015;28;20037;-49
2024/02/25 10:04:37;;;;;;;18.20;14.85;;;;;;;;;;5024915;28;20024;-56
2024/02/25 10:07:03;;;;;;;16.80;15.10;;;;;;;;;;5024896;28;20022;-55
2024/02/25 10:09:33;;;;;;;21.27;15.20;;;;;;;;;;5024950;28;20052;-61
2024/02/25 10:12:03;;;;;;;17.27;14.75;;;;;;;;;;5024938;28;20226;-59
2024/02/25 10:14:31;;;;;;;16.88;14.43;;;;;;;;;;5024744;28;20017;-56
2024/02/25 10:17:04;;;;;;;18.65;15.60;;;;;;;;;;5025157;28;20061;-57
2024/02/25 10:19:31;;;;;;;19.25;15.82;;;;;;;;;;5024623;28;20072;-59
2024/02/25 10:22:09;;;;;;;18.80;15.13;;;;;;;;;;5024835;28;20033;-58
2024/02/25 10:24:36;;;;;;;19.30;15.55;;;;;;;;;;5024810;28;20085;-64
2024/02/25 10:27:09;;;;;;;19.67;15.90;;;;;;;;;;5024875;28;20053;-58
2024/02/25 10:30:12;;;;;;;18.10;14.95;;;;;;;;;;5024667;28;20022;-59
2024/02/25 10:32:40;;;;;;;;;;;;;;;;;;4945785;29;20323;-59
2024/02/25 10:35:09;;;;;;;18.65;15.23;;;;;;;;;;5011086;28;20077;-57
2024/02/25 10:37:36;;;;;;;18.10;15.35;;;;;;;;;;5024351;28;20058;-59
2024/02/25 10:40:05;;;;;;;19.50;15.73;;;;;;;;;;5024746;28;20026;-59
2024/02/25 10:42:32;;;;;;;22.60;16.15;;;;;;;;;;5024472;28;20089;-61
2024/02/25 10:44:59;;;;;;;17.15;15.32;;;;;;;;;;5024396;28;20024;-59
2024/02/25 10:47:31;;;;;;;24.17;15.13;;;;;;;;;;5024459;28;20050;-50
2024/02/25 10:49:58;;;;;;;18.67;15.60;;;;;;;;;;5024556;28;20022;-48
2024/02/25 10:52:28;;;;;;;22.00;16.17;;;;;;;;;;5024201;28;20034;-51
2024/02/25 10:54:57;;;;;;;18.13;15.30;;;;;;;;;;5024518;28;20021;-48
2024/02/25 10:57:23;;;;;;;20.80;15.88;;;;;;;;;;5024218;28;20026;-54
2024/02/25 10:59:51;;;;;;;19.00;15.85;;;;;;;;;;5024281;28;20030;-52
2024/02/25 11:02:19;;;;;;;27.60;16.20;;;;;;;;;;5024089;28;20030;-57
2024/02/25 11:04:46;;;;;;;33.33;16.80;;;;;;;;;;5023809;28;20037;-56
2024/02/25 11:07:13;;;;;;;28.30;15.63;;;;;;;;;;5024210;28;20164;-57
2024/02/25 11:09:40;;;;;;;20.13;15.30;;;;;;;;;;5023856;28;20034;-55
2024/02/25 11:12:20;;;;;;;24.42;15.77;;;;;;;;;;5023566;28;20028;-58
2024/02/25 11:14:50;;;;;;;26.20;17.27;;;;;;;;;;5023881;28;20340;-58
2024/02/25 11:17:18;;;;;;;26.27;15.63;;;;;;;;;;5024093;28;20042;-59
2024/02/25 11:19:56;;;;;;;17.80;15.88;;;;;;;;;;5023897;28;20273;-56
2024/02/25 11:22:41;;;;;;;23.88;16.23;;;;;;;;;;5023937;28;20238;-56
2024/02/25 11:25:27;;;;;;;32.42;16.00;;;;;;;;;;5023992;28;20021;-49
2024/02/25 11:27:58;;;;;;;21.40;15.90;;;;;;;;;;5023807;28;20021;-54
2024/02/25 11:30:45;;;;;;;22.45;15.77;;;;;;;;;;5024177;28;20022;-49
2024/02/25 11:33:23;;;;;;;21.40;16.17;;;;;;;;;;5023588;28;20030;-55
2024/02/25 11:35:50;;;;;;;22.00;14.90;;;;;;;;;;5023801;28;20013;-53
2024/02/25 11:38:23;;;;;;;20.88;15.73;;;;;;;;;;5023923;28;20221;-54
2024/02/25 11:40:51;;;;;;;18.65;15.77;;;;;;;;;;5023962;28;20032;-56
2024/02/25 11:43:17;;;;;;;18.73;15.60;;;;;;;;;;5023831;28;20080;-55
2024/02/25 11:45:44;;;;;;;17.55;14.98;;;;;;;;;;5024066;28;20081;-60
2024/02/25 11:48:11;;;;;;;21.05;15.38;;;;;;;;;;5023654;28;20076;-57
2024/02/25 11:50:39;;;;;;;28.30;16.13;;;;;;;;;;5024030;28;20038;-59
2024/02/25 11:53:06;;;;;;;18.42;15.50;;;;;;;;;;5023720;28;20218;-55
2024/02/25 11:55:33;;;;;;;22.63;15.82;;;;;;;;;;5023511;28;20022;-50
2024/02/25 11:58:00;;;;;;;20.35;15.75;;;;;;;;;;5023753;28;20040;-51
2024/02/25 12:00:27;;;;;;;19.38;15.73;;;;;;;;;;5023676;28;20021;-52
2024/02/25 12:02:54;;;;;;;20.67;15.23;;;;;;;;;;5023587;28;20057;-56
2024/02/25 12:05:20;;;;;;;19.38;15.38;;;;;;;;;;5023370;28;20056;-57
2024/02/25 12:07:59;;;;;;;21.00;15.68;;;;;;;;;;5023547;28;20029;-51
2024/02/25 12:10:26;;;;;;;24.85;15.80;;;;;;;;;;5023739;28;20044;-51
2024/02/25 12:12:54;;;;;;;27.55;15.90;;;;;;;;;;5023522;28;20034;-53
2024/02/25 12:15:21;;;;;;;19.02;15.65;;;;;;;;;;5023510;28;20258;-53
2024/02/25 12:17:48;;;;;;;25.08;16.05;;;;;;;;;;5023490;28;20268;-54
2024/02/25 12:20:17;;;;;;;20.52;15.88;;;;;;;;;;5023653;28;20089;-51
2024/02/25 12:22:47;;;;;;;24.80;16.52;;;;;;;;;;5025369;28;20053;-51
2024/02/25 12:25:17;;;;;;;31.75;16.30;;;;;;;;;;5027034;28;20026;-52
2024/02/25 12:27:45;;;;;;;44.95;17.85;;;;;;;;;;5026889;28;20385;-58
2024/02/25 12:30:12;;;;;;;34.67;16.27;;;;;;;;;;5026892;28;20026;-53
2024/02/25 12:32:39;;;;;;;27.15;15.63;;;;;;;;;;5026874;28;20081;-54
2024/02/25 12:35:06;;;;;;;30.83;16.60;;;;;;;;;;5027023;28;20033;-50
2024/02/25 12:37:33;;;;;;;23.30;15.27;;;;;;;;;;5026581;28;20025;-52
2024/02/25 12:39:59;;;;;;;31.80;15.85;;;;;;;;;;5026934;28;20029;-55
2024/02/25 12:42:29;;;;;;;82.80;19.42;;;;;;;;;;5026636;28;20036;-56
2024/02/25 12:44:55;;;;;;;60.38;18.60;;;;;;;;;;5026552;28;20198;-56
2024/02/25 12:47:22;;;;;;;43.83;16.52;;;;;;;;;;5026654;28;20045;-57
2024/02/25 12:49:49;;;;;;;38.33;16.65;;;;;;;;;;5026485;28;20026;-53
2024/02/25 12:52:16;;;;;;;35.80;16.88;;;;;;;;;;5026294;28;20036;-57
2024/02/25 12:54:46;;;;;;;37.60;17.23;;;;;;;;;;5026468;28;20030;-58
2024/02/25 12:57:13;;;;;;;33.35;16.92;;;;;;;;;;5026406;28;20036;-59
2024/02/25 12:59:39;;;;;;;40.58;17.60;;;;;;;;;;5026231;28;20033;-56
2024/02/25 13:02:08;;;;;;;34.65;15.82;;;;;;;;;;5026104;28;20025;-55
2024/02/25 13:04:36;;;;;;;31.02;16.45;;;;;;;;;;5026065;28;20050;-54
2024/02/25 13:07:05;;;;;;;35.28;15.77;;;;;;;;;;5026029;28;20049;-56
2024/02/25 13:09:32;;;;;;;28.50;15.35;;;;;;;;;;5026189;28;20023;-53
2024/02/25 13:12:01;;;;;;;27.75;15.50;;;;;;;;;;5026124;28;20037;-54
2024/02/25 13:14:29;;;;;;;23.88;14.95;;;;;;;;;;5025840;28;20029;-56
2024/02/25 13:16:55;;;;;;;24.30;15.90;;;;;;;;;;5025916;28;20354;-58
2024/02/25 13:19:22;;;;;;;24.60;14.80;;;;;;;;;;5025968;28;20025;-55
2024/02/25 13:21:48;;;;;;;20.45;14.90;;;;;;;;;;5025625;28;20136;-53
2024/02/25 13:24:15;;;;;;;23.30;15.30;;;;;;;;;;5025889;28;20358;-57
2024/02/25 13:26:42;;;;;;;26.77;14.88;;;;;;;;;;5025863;28;20090;-55
2024/02/25 13:29:10;;;;;;;18.90;15.10;;;;;;;;;;5025586;28;20078;-53
2024/02/25 13:31:36;;;;;;;23.45;15.15;;;;;;;;;;5026173;28;20026;-59
2024/02/25 13:34:03;;;;;;;23.83;13.93;;;;;;;;;;5007552;28;20280;-57
2024/02/25 13:36:33;;;;;;;18.55;14.77;;;;;;;;;;5024560;28;20238;-58
2024/02/25 13:39:02;;;;;;;23.75;14.82;;;;;;;;;;5025532;28;20196;-53
2024/02/25 13:41:30;;;;;;;21.45;14.40;;;;;;;;;;5025853;28;20053;-53
2024/02/25 13:44:00;;;;;;;22.02;14.50;;;;;;;;;;5025295;28;20018;-54
2024/02/25 13:46:27;;;;;;;21.35;14.02;;;;;;;;;;5025844;28;20041;-54
2024/02/25 13:48:54;;;;;;;19.85;14.27;;;;;;;;;;5025430;28;20041;-53
2024/02/25 13:51:21;;;;;;;21.20;14.15;;;;;;;;;;5025686;28;20030;-53
2024/02/25 13:53:48;;;;;;;22.35;14.73;;;;;;;;;;5025296;28;20362;-54
2024/02/25 13:56:15;;;;;;;27.67;14.68;;;;;;;;;;5025595;28;20053;-54
2024/02/25 13:58:42;;;;;;;20.95;14.25;;;;;;;;;;5025166;28;20030;-49
2024/02/25 14:01:09;;;;;;;21.63;14.20;;;;;;;;;;5025467;28;20026;-57
2024/02/25 14:03:35;;;;;;;19.13;13.40;;;;;;;;;;5024229;28;20033;-54
2024/02/25 14:06:02;;;;;;;21.45;14.85;;;;;;;;;;5024700;28;20046;-50
2024/02/25 14:08:29;;;;;;;24.25;14.45;;;;;;;;;;5024985;28;20022;-54
2024/02/25 14:10:55;;;;;;;21.70;14.85;;;;;;;;;;5025315;28;20030;-57
2024/02/25 14:13:22;;;;;;;25.00;15.40;;;;;;;;;;5024763;28;20048;-48
2024/02/25 14:15:49;;;;;;;18.42;14.77;;;;;;;;;;5025102;28;20022;-50
2024/02/25 14:18:15;;;;;;;20.60;15.90;;;;;;;;;;5025017;28;20022;-59